Time;durP1;ratioP1;P1;durP2;ratioP2;P2;SDS_P1;SDS_P2;PMS_P1;PMS_P2;Temp;Humidity;BMP_temperature;BMP_pressure;BME280_temperature;BME280_humidity;BME280_pressure;Samples;Min_cycle;Max_cycle;Signal;HPM_P1;HPM_P2
2021/06/09 00:00:42;;;;;;;19.30;17.30;;;24.70;60.70;;;;;;4798949;54;21030;-31
2021/06/09 00:05:43;;;;;;;18.25;16.40;;;24.70;60.70;;;;;;4812642;54;21082;-31
2021/06/09 00:10:51;;;;;;;19.23;17.33;;;24.70;60.70;;;;;;4799214;54;21067;-34
2021/06/09 00:15:52;;;;;;;19.02;17.12;;;24.70;60.70;;;;;;4815001;54;21579;-26
2021/06/09 00:20:53;;;;;;;19.10;17.20;;;24.70;60.70;;;;;;4798100;54;20998;-35
2021/06/09 00:25:56;;;;;;;18.67;16.77;;;24.70;60.70;;;;;;4806199;54;21062;-34
2021/06/09 00:30:58;;;;;;;18.95;17.05;;;24.70;61.30;;;;;;4839429;54;22034;-25
2021/06/09 00:35:59;;;;;;;18.27;16.48;;;24.70;60.70;;;;;;4795118;58;21596;-26
2021/06/09 00:41:02;;;;;;;18.00;16.20;;;24.70;60.70;;;;;;4880933;54;21066;-35
2021/06/09 00:46:06;;;;;;;17.92;16.08;;;24.70;60.60;;;;;;4794851;58;20991;-25
2021/06/09 00:51:14;;;;;;;17.45;15.65;;;24.70;60.60;;;;;;4796198;58;21660;-34
2021/06/09 00:56:16;;;;;;;16.67;14.98;;;24.70;60.70;;;;;;4815784;54;21556;-23
2021/06/09 01:01:19;;;;;;;17.35;15.65;;;24.70;60.50;;;;;;4795365;58;21144;-34
2021/06/09 01:06:21;;;;;;;18.23;16.33;;;24.70;60.60;;;;;;4839578;54;21126;-34
2021/06/09 01:11:25;;;;;;;17.58;15.80;;;24.60;60.50;;;;;;4806626;54;21050;-34
2021/06/09 01:16:26;;;;;;;17.12;15.38;;;24.70;60.60;;;;;;4820715;54;21353;-34
2021/06/09 01:21:31;;;;;;;16.05;14.50;;;24.70;60.50;;;;;;4834581;54;22115;-33
2021/06/09 01:26:38;;;;;;;16.85;15.05;;;24.70;60.50;;;;;;4801094;54;20999;-22
2021/06/09 01:31:39;;;;;;;17.65;15.88;;;24.70;60.50;;;;;;4810415;54;21521;-30
2021/06/09 01:36:42;;;;;;;15.77;14.13;;;24.70;60.50;;;;;;4795993;54;21118;-30
2021/06/09 01:41:46;;;;;;;17.10;15.40;;;24.70;60.50;;;;;;4834426;54;20991;-28
2021/06/09 01:46:47;;;;;;;16.70;15.00;;;24.70;60.50;;;;;;4810916;54;21044;-34
2021/06/09 01:51:48;;;;;;;16.12;14.43;;;24.70;60.50;;;;;;4816766;54;21552;-33
2021/06/09 01:56:49;;;;;;;15.98;14.32;;;24.70;60.50;;;;;;4793940;58;21035;-32
2021/06/09 02:01:51;;;;;;;16.15;14.52;;;24.70;60.40;;;;;;4796108;54;20959;-35
2021/06/09 02:06:53;;;;;;;16.08;14.50;;;24.60;60.40;;;;;;4803639;54;21094;-34
2021/06/09 02:11:59;;;;;;;15.75;14.23;;;24.70;60.40;;;;;;4842407;54;20999;-22
2021/06/09 02:17:00;;;;;;;16.15;14.48;;;24.60;60.40;;;;;;4794834;58;21023;-33
2021/06/09 02:22:03;;;;;;;15.55;14.02;;;24.70;60.40;;;;;;4795762;58;21090;-28
2021/06/09 02:27:04;;;;;;;15.48;13.98;;;24.70;60.40;;;;;;4796646;54;21067;-34
2021/06/09 02:32:07;;;;;;;14.87;13.38;;;24.70;60.40;;;;;;4807207;54;21030;-30
2021/06/09 02:37:09;;;;;;;15.20;13.70;;;24.60;60.40;;;;;;4794539;58;21007;-26
2021/06/09 02:42:19;;;;;;;16.17;14.57;;;24.60;60.30;;;;;;4819612;54;20990;-25
2021/06/09 02:47:20;;;;;;;14.77;13.30;;;24.70;60.30;;;;;;4825569;54;21055;-35
2021/06/09 02:52:30;;;;;;;15.25;13.75;;;24.60;60.20;;;;;;4828179;54;20983;-36
2021/06/09 02:57:39;;;;;;;15.00;13.48;;;24.70;60.30;;;;;;4813384;54;20987;-33
2021/06/09 03:04:15;;;;;;;14.48;13.07;;;24.60;60.10;;;;;;4801879;54;20980;-29
2021/06/09 03:10:59;;;;;;;14.95;13.45;;;24.70;60.30;;;;;;4826579;54;21003;-29
2021/06/09 03:16:06;;;;;;;15.27;13.73;;;24.60;60.20;;;;;;4822684;54;21020;-22
2021/06/09 03:21:21;;;;;;;14.15;12.68;;;24.60;60.20;;;;;;4823045;54;21144;-34
2021/06/09 03:26:35;;;;;;;14.25;12.75;;;24.60;60.20;;;;;;4830189;54;20987;-35
2021/06/09 03:31:42;;;;;;;13.85;12.45;;;24.60;60.10;;;;;;4810599;54;20975;-34
2021/06/09 03:36:45;;;;;;;14.52;13.07;;;24.60;60.10;;;;;;4806987;54;21080;-30
2021/06/09 03:41:59;;;;;;;14.00;12.70;;;24.60;60.10;;;;;;4831323;54;21661;-34
2021/06/09 03:47:01;;;;;;;13.62;12.30;;;24.50;60.00;;;;;;4795374;58;21026;-30
2021/06/09 03:52:08;;;;;;;13.27;12.02;;;24.60;60.10;;;;;;4832223;54;21026;-35
2021/06/09 03:57:09;;;;;;;13.27;11.98;;;24.60;60.00;;;;;;4840159;54;21509;-30
2021/06/09 04:02:14;;;;;;;13.27;11.98;;;24.60;60.00;;;;;;4799168;54;21035;-34
2021/06/09 04:07:15;;;;;;;12.70;11.50;;;24.60;60.00;;;;;;4795497;56;21062;-33
2021/06/09 04:12:18;;;;;;;13.27;11.85;;;24.60;60.00;;;;;;4795527;54;21035;-30
2021/06/09 04:17:30;;;;;;;13.13;11.07;;;24.60;59.90;;;;;;4812856;54;21109;-33
2021/06/09 04:22:31;;;;;;;13.30;11.90;;;24.60;59.90;;;;;;4895866;54;21166;-29
2021/06/09 04:27:36;;;;;;;12.65;11.35;;;24.60;59.80;;;;;;4845936;54;21478;-30
2021/06/09 04:32:55;;;;;;;13.52;12.23;;;24.60;59.80;;;;;;4800019;54;21031;-34
2021/06/09 04:37:56;;;;;;;11.98;10.88;;;24.60;59.80;;;;;;4808561;54;21601;-36
2021/06/09 04:42:58;;;;;;;11.73;10.63;;;24.60;59.70;;;;;;4824990;54;21025;-29
2021/06/09 04:47:59;;;;;;;12.48;11.15;;;24.60;59.70;;;;;;4810047;54;21046;-34
2021/06/09 04:53:12;;;;;;;12.98;11.68;;;24.60;59.60;;;;;;4795215;58;21007;-31
2021/06/09 04:58:15;;;;;;;12.63;11.32;;;24.60;59.50;;;;;;4812213;54;21533;-31
2021/06/09 05:03:16;;;;;;;12.98;11.68;;;24.60;59.50;;;;;;4798120;54;21015;-28
2021/06/09 05:08:17;;;;;;;13.32;12.02;;;24.60;59.50;;;;;;4795370;58;21003;-31
2021/06/09 05:13:26;;;;;;;13.05;11.80;;;24.60;59.40;;;;;;4802904;54;21061;-31
2021/06/09 05:18:32;;;;;;;13.18;11.52;;;24.60;59.40;;;;;;4795779;58;21019;-28
2021/06/09 05:23:38;;;;;;;11.75;10.55;;;24.60;59.40;;;;;;4815620;54;21507;-23
2021/06/09 05:28:45;;;;;;;11.90;10.50;;;24.60;59.30;;;;;;4797645;54;20987;-29
2021/06/09 05:33:47;;;;;;;12.50;11.30;;;24.60;59.30;;;;;;4795514;58;22524;-33
2021/06/09 05:38:50;;;;;;;12.40;11.10;;;24.60;59.30;;;;;;4847661;54;20995;-35
2021/06/09 05:43:51;;;;;;;11.85;10.75;;;24.60;59.20;;;;;;4848211;54;21078;-30
2021/06/09 05:48:52;;;;;;;12.60;11.40;;;24.60;59.20;;;;;;4816940;54;20995;-29
2021/06/09 05:53:56;;;;;;;15.27;11.73;;;24.50;59.10;;;;;;4796820;54;21003;-28
2021/06/09 05:58:57;;;;;;;13.02;11.82;;;24.50;59.10;;;;;;4811742;54;20979;-34
2021/06/09 06:03:58;;;;;;;13.27;11.98;;;24.50;59.00;;;;;;4795513;58;21529;-30
2021/06/09 06:09:00;;;;;;;12.80;11.50;;;24.60;59.10;;;;;;4795350;58;21114;-34
2021/06/09 06:14:06;;;;;;;13.98;11.93;;;24.50;59.00;;;;;;4827648;54;21027;-29
2021/06/09 06:19:07;;;;;;;12.65;11.35;;;24.50;59.00;;;;;;4830246;54;21113;-35
2021/06/09 06:24:09;;;;;;;13.23;11.93;;;24.50;59.00;;;;;;4795939;54;21118;-35
2021/06/09 06:29:11;;;;;;;12.00;10.80;;;24.50;59.00;;;;;;4795256;58;20978;-30
2021/06/09 06:34:16;;;;;;;12.27;10.98;;;24.50;59.00;;;;;;4887515;54;21078;-30
2021/06/09 06:39:17;;;;;;;12.18;10.98;;;24.50;59.00;;;;;;4803708;54;21090;-25
2021/06/09 06:44:18;;;;;;;13.27;11.88;;;24.50;59.00;;;;;;4845217;54;21553;-32
2021/06/09 06:49:20;;;;;;;13.40;12.00;;;24.50;59.00;;;;;;4796195;54;20998;-32
2021/06/09 06:54:21;;;;;;;13.77;12.32;;;24.50;59.00;;;;;;4795336;58;21112;-27
2021/06/09 06:59:24;;;;;;;12.55;11.25;;;24.50;59.00;;;;;;4830674;54;20995;-34
2021/06/09 07:04:26;;;;;;;13.23;12.00;;;24.50;59.00;;;;;;4794900;58;21063;-27
2021/06/09 07:09:27;;;;;;;13.02;11.73;;;24.50;59.00;;;;;;4805453;54;21062;-30
2021/06/09 07:14:33;;;;;;;13.30;11.88;;;24.50;59.10;;;;;;4795266;54;21058;-32
2021/06/09 07:19:37;;;;;;;28.20;23.70;;;24.60;59.30;;;;;;4798881;54;20986;-39
2021/06/09 07:24:38;;;;;;;36.90;30.35;;;24.60;58.40;;;;;;4794838;58;21054;-34
2021/06/09 07:29:41;;;;;;;40.17;32.10;;;24.50;57.90;;;;;;4795019;58;21603;-32
2021/06/09 07:34:42;;;;;;;44.33;33.75;;;24.60;58.00;;;;;;4795070;58;21196;-32
2021/06/09 07:39:51;;;;;;;33.85;30.02;;;24.50;57.80;;;;;;4796331;54;21126;-31
2021/06/09 07:45:03;;;;;;;31.23;27.45;;;24.60;58.30;;;;;;4823157;54;21091;-28
2021/06/09 07:50:07;;;;;;;41.50;32.42;;;24.60;58.20;;;;;;4818919;54;20992;-33
2021/06/09 07:55:11;;;;;;;44.45;35.88;;;24.60;58.10;;;;;;4802385;54;20999;-29
2021/06/09 08:00:13;;;;;;;44.15;35.72;;;24.60;58.20;;;;;;4836642;54;21965;-32
2021/06/09 08:05:14;;;;;;;49.95;37.03;;;24.70;58.20;;;;;;4811013;54;20999;-22
2021/06/09 08:10:15;;;;;;;49.45;37.35;;;24.70;58.20;;;;;;4795902;54;21069;-35
2021/06/09 08:15:17;;;;;;;60.58;50.28;;;24.70;58.30;;;;;;4792727;55;22841;-23
2021/06/09 08:20:22;;;;;;;68.95;54.72;;;24.70;58.50;;;;;;4794113;58;21055;-29
2021/06/09 08:25:24;;;;;;;69.43;54.58;;;24.70;58.70;;;;;;4802994;54;21106;-35
2021/06/09 08:30:26;;;;;;;65.37;53.25;;;24.80;59.00;;;;;;4808789;54;21485;-35
2021/06/09 08:35:28;;;;;;;62.90;51.72;;;24.90;59.30;;;;;;4800493;54;21031;-30
2021/06/09 08:40:31;;;;;;;66.12;54.00;;;24.90;59.50;;;;;;4795462;58;21535;-35
2021/06/09 08:45:33;;;;;;;64.25;51.42;;;24.90;59.70;;;;;;4795793;54;21126;-24
2021/06/09 08:50:34;;;;;;;62.42;50.55;;;25.00;60.00;;;;;;4821474;54;21055;-26
2021/06/09 08:55:36;;;;;;;59.72;47.53;;;25.00;60.10;;;;;;4794962;58;21027;-33
2021/06/09 09:00:39;;;;;;;57.92;50.30;;;25.00;60.40;;;;;;4820314;54;21019;-30
2021/06/09 09:05:40;;;;;;;58.33;47.85;;;25.10;60.70;;;;;;4843843;54;21453;-25
2021/06/09 09:10:41;;;;;;;57.28;46.95;;;25.10;61.50;;;;;;4806168;54;21007;-30
2021/06/09 09:15:42;;;;;;;61.85;49.70;;;25.20;61.10;;;;;;4841818;54;21035;-31
2021/06/09 09:20:48;;;;;;;60.95;48.10;;;25.20;61.60;;;;;;4817064;54;21110;-28
2021/06/09 09:25:56;;;;;;;58.55;46.00;;;25.30;61.60;;;;;;4795633;58;21469;-35
2021/06/09 09:31:14;;;;;;;58.53;44.50;;;25.40;61.70;;;;;;4816859;54;21571;-32
2021/06/09 09:36:30;;;;;;;69.55;46.22;;;25.40;61.80;;;;;;4804474;54;21014;-28
2021/06/09 09:41:35;;;;;;;57.80;43.75;;;25.50;62.00;;;;;;4794751;58;21031;-29
2021/06/09 09:46:52;;;;;;;59.05;43.22;;;25.50;62.40;;;;;;4825137;54;21498;-29
2021/06/09 09:52:01;;;;;;;64.32;43.72;;;25.40;62.40;;;;;;4823991;54;21046;-31
2021/06/09 09:57:06;;;;;;;58.53;45.50;;;25.40;62.60;;;;;;4794164;58;21543;-33
2021/06/09 10:02:17;;;;;;;47.35;38.88;;;25.40;62.90;;;;;;4875744;54;21568;-35
2021/06/09 10:07:18;;;;;;;58.22;43.60;;;25.40;62.90;;;;;;4808289;54;21410;-35
2021/06/09 10:12:19;;;;;;;55.67;42.20;;;25.40;62.90;;;;;;4805990;54;21421;-25
2021/06/09 10:17:28;;;;;;;50.78;41.35;;;25.30;62.70;;;;;;4807986;54;20984;-31
2021/06/09 10:22:35;;;;;;;47.20;40.00;;;25.40;63.00;;;;;;4815326;54;21020;-20
2021/06/09 10:27:53;;;;;;;45.97;39.90;;;25.30;62.80;;;;;;4805516;54;21483;-29
2021/06/09 10:32:58;;;;;;;49.22;40.75;;;25.30;62.80;;;;;;4815979;54;21033;-32
2021/06/09 10:37:59;;;;;;;51.15;39.38;;;25.30;62.90;;;;;;4825017;54;21473;-30
2021/06/09 10:43:03;;;;;;;52.00;39.78;;;25.40;62.90;;;;;;4804037;54;20999;-28
2021/06/09 10:48:05;;;;;;;49.72;40.67;;;25.40;63.00;;;;;;4805067;54;21498;-30
2021/06/09 10:53:10;;;;;;;48.65;40.25;;;25.40;63.10;;;;;;4794805;58;21077;-30
2021/06/09 10:58:11;;;;;;;49.20;40.55;;;25.40;63.00;;;;;;4794179;58;20991;-30
2021/06/09 11:03:12;;;;;;;46.65;38.67;;;25.40;63.00;;;;;;4803194;54;21086;-24
2021/06/09 11:08:16;;;;;;;44.85;39.75;;;25.40;63.00;;;;;;4794298;58;21449;-32
2021/06/09 11:13:29;;;;;;;46.03;39.25;;;25.40;63.10;;;;;;4807905;54;22293;-27
2021/06/09 11:18:40;;;;;;;48.20;40.33;;;25.40;63.10;;;;;;4801768;54;21001;-33
2021/06/09 11:23:41;;;;;;;46.03;38.58;;;25.40;63.10;;;;;;4817812;54;21086;-32
2021/06/09 11:28:45;;;;;;;44.90;37.33;;;25.40;63.10;;;;;;4795756;54;21102;-28
2021/06/09 11:33:54;;;;;;;43.92;38.78;;;25.40;63.10;;;;;;4804253;54;21502;-33
2021/06/09 11:42:34;;;;;;;46.72;38.70;;;25.40;63.10;;;;;;4810227;54;21083;-32
2021/06/09 11:47:35;;;;;;;44.47;37.50;;;25.40;63.10;;;;;;4798194;54;21569;-27
2021/06/09 11:52:57;;;;;;;43.35;37.45;;;25.40;63.10;;;;;;4823727;54;21303;-31
2021/06/09 11:58:14;;;;;;;41.17;36.63;;;25.50;63.20;;;;;;4829767;54;21094;-35
2021/06/09 12:03:22;;;;;;;43.83;37.00;;;25.40;63.00;;;;;;4807805;54;21010;-29
2021/06/09 12:08:28;;;;;;;42.80;37.70;;;25.40;62.90;;;;;;4796883;54;20983;-28
2021/06/09 12:13:29;;;;;;;40.58;36.17;;;25.40;62.80;;;;;;4821943;54;21043;-32
2021/06/09 12:18:30;;;;;;;41.97;37.00;;;25.40;62.70;;;;;;4826214;54;20995;-28
2021/06/09 12:23:31;;;;;;;41.47;36.63;;;25.40;62.70;;;;;;4829477;54;21099;-32
2021/06/09 12:28:32;;;;;;;40.88;36.50;;;25.40;62.70;;;;;;4888664;54;21007;-34
2021/06/09 12:33:38;;;;;;;41.17;36.78;;;25.40;62.60;;;;;;4825094;54;20995;-28
2021/06/09 12:38:40;;;;;;;43.58;35.72;;;25.40;62.50;;;;;;4834043;54;21051;-31
2021/06/09 12:43:41;;;;;;;42.47;37.30;;;25.40;62.40;;;;;;4826700;54;21486;-18
2021/06/09 12:48:43;;;;;;;41.92;35.95;;;25.40;62.30;;;;;;4805740;54;21067;-28
2021/06/09 12:53:44;;;;;;;45.03;36.83;;;25.40;62.40;;;;;;4805411;54;21557;-30
2021/06/09 12:58:47;;;;;;;40.75;36.42;;;25.40;62.50;;;;;;4798669;54;21013;-33
2021/06/09 13:03:48;;;;;;;41.88;36.03;;;25.40;62.60;;;;;;4794649;58;21442;-34
2021/06/09 13:08:56;;;;;;;41.08;34.63;;;25.50;63.40;;;;;;4804962;54;21506;-33
2021/06/09 13:14:03;;;;;;;38.65;34.50;;;25.50;62.80;;;;;;4809967;54;21572;-29
2021/06/09 13:19:08;;;;;;;40.75;35.90;;;25.50;62.90;;;;;;4794317;58;20995;-33
2021/06/09 13:24:38;;;;;;;38.53;34.15;;;25.50;63.00;;;;;;4850084;54;21521;-27
2021/06/09 13:29:51;;;;;;;41.58;35.28;;;25.50;63.20;;;;;;4795333;58;21059;-28
2021/06/09 13:34:54;;;;;;;39.95;35.60;;;25.50;63.30;;;;;;4838829;54;21581;-31
2021/06/09 13:40:46;;;;;;;39.28;35.10;;;25.50;63.40;;;;;;4794350;55;21501;-33
2021/06/09 13:45:53;;;;;;;39.10;34.60;;;25.50;63.40;;;;;;4799003;54;21007;-33
2021/06/09 13:51:18;;;;;;;39.10;35.03;;;25.50;63.50;;;;;;4830911;54;21475;-28
2021/06/09 13:56:37;;;;;;;38.50;34.25;;;25.50;63.60;;;;;;4821863;54;21007;-27
2021/06/09 14:01:39;;;;;;;40.40;33.95;;;25.50;63.70;;;;;;4797829;54;21087;-33
2021/06/09 14:06:40;;;;;;;36.50;32.60;;;25.50;63.80;;;;;;4834019;54;21043;-32
2021/06/09 14:15:15;;;;;;;37.03;33.03;;;25.60;63.80;;;;;;4794524;58;21024;-33
2021/06/09 14:20:22;;;;;;;36.67;32.75;;;25.60;63.90;;;;;;4808308;54;20999;-32
2021/06/09 14:25:28;;;;;;;36.67;32.85;;;25.60;64.10;;;;;;4830657;54;21098;-30
2021/06/09 14:30:52;;;;;;;36.95;32.95;;;25.60;64.10;;;;;;4855994;54;21027;-31
2021/06/09 14:36:31;;;;;;;39.25;34.33;;;25.70;64.20;;;;;;4812790;54;22279;-33
2021/06/09 14:41:51;;;;;;;37.70;33.78;;;25.70;64.30;;;;;;4853678;54;21981;-33
2021/06/09 14:46:59;;;;;;;35.90;32.00;;;25.60;64.10;;;;;;4805528;54;20971;-35
2021/06/09 14:52:42;;;;;;;38.25;34.10;;;25.60;63.80;;;;;;4820134;54;21582;-34
2021/06/09 14:57:44;;;;;;;36.10;32.30;;;25.60;63.90;;;;;;4814555;54;21043;-26
2021/06/09 15:02:46;;;;;;;36.50;32.58;;;25.60;63.80;;;;;;4794912;58;21576;-24
2021/06/09 15:07:48;;;;;;;36.28;32.42;;;25.60;63.70;;;;;;4844392;54;21597;-27
2021/06/09 15:12:48;;;;;;;36.78;32.70;;;25.60;63.70;;;;;;4810458;54;21050;-30
2021/06/09 15:17:49;;;;;;;35.22;31.52;;;25.50;63.80;;;;;;4811626;54;21027;-25
2021/06/09 15:22:50;;;;;;;36.33;31.62;;;25.50;63.80;;;;;;4846328;54;21042;-20
2021/06/09 15:27:51;;;;;;;36.13;32.13;;;25.50;63.80;;;;;;4809932;54;21002;-27
2021/06/09 15:32:52;;;;;;;36.33;32.20;;;25.40;63.80;;;;;;4823126;54;21054;-19
2021/06/09 15:37:53;;;;;;;36.70;32.80;;;25.40;63.80;;;;;;4795149;58;21134;-27
2021/06/09 15:42:54;;;;;;;35.58;31.80;;;25.40;63.80;;;;;;4833505;54;21597;-22
2021/06/09 15:47:55;;;;;;;35.63;31.50;;;25.30;63.80;;;;;;4804458;54;20984;-34
2021/06/09 15:52:56;;;;;;;35.58;31.92;;;25.40;63.90;;;;;;4821530;54;21122;-25
2021/06/09 15:57:59;;;;;;;34.92;31.15;;;25.30;63.80;;;;;;4794712;55;21090;-32
2021/06/09 16:03:07;;;;;;;34.10;30.60;;;25.30;63.80;;;;;;4795409;58;21478;-30
2021/06/09 16:08:08;;;;;;;34.35;30.80;;;25.30;63.80;;;;;;4795662;58;21485;-35
2021/06/09 16:13:09;;;;;;;33.95;30.45;;;25.30;63.80;;;;;;4806790;54;21010;-34
2021/06/09 16:18:10;;;;;;;32.95;29.58;;;25.30;63.80;;;;;;4815949;54;21071;-33
2021/06/09 16:23:10;;;;;;;34.92;31.42;;;25.30;63.80;;;;;;4858062;54;21035;-33
2021/06/09 16:28:12;;;;;;;32.20;28.83;;;25.20;63.70;;;;;;4824616;54;21046;-28
2021/06/09 16:33:12;;;;;;;33.17;29.75;;;25.20;63.70;;;;;;4827009;54;20995;-32
2021/06/09 16:38:13;;;;;;;34.55;30.98;;;25.20;63.70;;;;;;4794363;58;21007;-33
2021/06/09 16:43:14;;;;;;;31.73;28.48;;;25.20;63.70;;;;;;4794855;58;21537;-20
2021/06/09 16:48:15;;;;;;;31.55;28.25;;;25.20;63.70;;;;;;4820201;54;21054;-35
2021/06/09 16:53:16;;;;;;;32.95;29.58;;;25.20;63.60;;;;;;4829603;54;20987;-31
2021/06/09 17:03:41;;;;;;;33.60;30.10;;;25.20;63.60;;;;;;4795151;54;21022;-34
2021/06/09 17:08:42;;;;;;;33.92;30.30;;;25.20;63.50;;;;;;4823601;54;21591;-34
2021/06/09 17:13:42;;;;;;;32.65;29.17;;;25.20;63.50;;;;;;4815432;54;21100;-35
2021/06/09 17:18:44;;;;;;;32.90;29.50;;;25.20;63.50;;;;;;4806971;54;21533;-31
2021/06/09 17:23:45;;;;;;;34.42;30.83;;;25.20;63.40;;;;;;4803253;54;21070;-32
2021/06/09 17:28:46;;;;;;;31.83;28.52;;;25.20;63.40;;;;;;4855603;54;20989;-21
2021/06/09 17:33:47;;;;;;;33.10;29.60;;;25.20;63.40;;;;;;4820096;54;21493;-31
2021/06/09 17:38:48;;;;;;;31.25;28.05;;;25.20;63.40;;;;;;4804951;54;20995;-32
2021/06/09 17:43:49;;;;;;;33.25;29.77;;;25.20;63.30;;;;;;4797196;54;20999;-29
2021/06/09 17:48:50;;;;;;;31.10;27.98;;;25.20;63.30;;;;;;4794958;58;20995;-31
2021/06/09 17:53:51;;;;;;;31.73;28.52;;;25.20;63.30;;;;;;4795198;58;21007;-34
2021/06/09 17:58:52;;;;;;;30.67;27.45;;;25.20;63.20;;;;;;4873170;54;21062;-30
2021/06/09 18:03:54;;;;;;;32.13;28.87;;;25.20;63.20;;;;;;4847751;54;21095;-35
2021/06/09 18:08:56;;;;;;;31.33;28.00;;;25.20;63.20;;;;;;4807054;54;21542;-26
2021/06/09 18:13:57;;;;;;;32.47;28.98;;;25.20;63.20;;;;;;4868821;54;21058;-31
2021/06/09 18:19:00;;;;;;;32.35;28.92;;;25.10;63.10;;;;;;4817536;54;21074;-23
2021/06/09 18:24:01;;;;;;;30.75;27.65;;;25.20;63.10;;;;;;4814654;54;21534;-31
2021/06/09 18:29:02;;;;;;;30.77;27.60;;;25.10;63.10;;;;;;4804871;54;21482;-23
2021/06/09 18:34:04;;;;;;;29.92;26.67;;;25.10;63.00;;;;;;4815435;54;21031;-33
2021/06/09 18:39:05;;;;;;;30.33;27.23;;;25.10;63.00;;;;;;4823156;54;21472;-33
2021/06/09 18:44:08;;;;;;;30.08;26.95;;;25.10;63.00;;;;;;4840996;54;21015;-34
2021/06/09 18:49:10;;;;;;;31.15;27.98;;;25.10;63.00;;;;;;4811036;54;21493;-29
2021/06/09 18:54:11;;;;;;;30.98;27.67;;;25.10;63.00;;;;;;4811893;54;21003;-33
2021/06/09 18:59:12;;;;;;;30.55;27.42;;;25.10;63.00;;;;;;4794053;58;21007;-32
2021/06/09 19:04:14;;;;;;;29.65;26.55;;;25.10;62.90;;;;;;4809075;54;21034;-28
2021/06/09 19:09:15;;;;;;;30.08;26.95;;;25.10;63.00;;;;;;4818126;54;20986;-33
2021/06/09 19:14:17;;;;;;;30.48;27.27;;;25.10;62.90;;;;;;4797938;54;21031;-32
2021/06/09 19:19:19;;;;;;;29.75;26.65;;;25.10;62.90;;;;;;4795881;54;21039;-31
2021/06/09 19:24:20;;;;;;;29.08;26.12;;;25.10;62.90;;;;;;4813978;54;21188;-33
2021/06/09 19:29:22;;;;;;;28.30;25.40;;;25.10;62.90;;;;;;4804721;54;20975;-34
2021/06/09 19:34:23;;;;;;;30.05;26.90;;;25.10;62.90;;;;;;4824929;54;21074;-34
2021/06/09 19:39:24;;;;;;;27.77;24.98;;;25.10;62.90;;;;;;4804795;54;21004;-33
2021/06/09 19:44:25;;;;;;;28.73;25.88;;;25.10;63.40;;;;;;4805389;54;21071;-27
2021/06/09 19:49:26;;;;;;;29.05;26.00;;;25.10;62.90;;;;;;4832084;54;20984;-33
2021/06/09 19:54:26;;;;;;;27.60;24.80;;;25.10;62.90;;;;;;4795035;58;21591;-25
2021/06/09 19:59:27;;;;;;;29.42;26.45;;;25.10;62.80;;;;;;4829340;54;20999;-34
2021/06/09 20:04:28;;;;;;;27.08;24.27;;;25.10;62.90;;;;;;4809489;54;20991;-33
2021/06/09 20:09:29;;;;;;;27.00;24.20;;;25.10;62.80;;;;;;4796370;54;21011;-26
2021/06/09 20:14:30;;;;;;;29.27;26.27;;;25.10;62.80;;;;;;4811116;54;21042;-26
2021/06/09 20:19:30;;;;;;;26.35;23.75;;;25.10;63.20;;;;;;4820562;54;21466;-32
2021/06/09 20:24:33;;;;;;;27.85;25.05;;;25.10;62.80;;;;;;4842073;54;21014;-31
2021/06/09 20:29:35;;;;;;;27.67;24.83;;;25.10;62.90;;;;;;4826377;54;21540;-35
2021/06/09 20:34:37;;;;;;;26.87;24.15;;;25.10;62.70;;;;;;4839202;54;21886;-35
2021/06/09 20:39:38;;;;;;;26.95;24.25;;;25.10;62.70;;;;;;4803253;54;21498;-35
2021/06/09 20:44:42;;;;;;;25.08;22.58;;;25.10;62.70;;;;;;4827399;54;20991;-28
2021/06/09 20:49:43;;;;;;;28.55;25.55;;;25.10;62.70;;;;;;4813970;54;21003;-33
2021/06/09 20:54:44;;;;;;;26.80;24.10;;;25.10;62.70;;;;;;4827057;54;21008;-31
2021/06/09 20:59:45;;;;;;;25.60;23.05;;;25.10;62.70;;;;;;4829776;54;21004;-33
2021/06/09 21:04:46;;;;;;;25.70;23.15;;;25.10;62.70;;;;;;4827293;54;21055;-36
2021/06/09 21:09:47;;;;;;;25.12;22.62;;;25.10;62.70;;;;;;4805218;54;21007;-26
2021/06/09 21:14:48;;;;;;;25.52;22.98;;;25.10;62.70;;;;;;4827549;54;21003;-30
2021/06/09 21:19:49;;;;;;;25.35;22.85;;;25.10;62.60;;;;;;4825562;54;21035;-32
2021/06/09 21:24:49;;;;;;;24.87;22.37;;;25.10;62.60;;;;;;4827598;54;21107;-28
2021/06/09 21:29:50;;;;;;;26.08;23.58;;;25.10;62.60;;;;;;4836483;54;20999;-31
2021/06/09 21:34:51;;;;;;;24.92;22.42;;;25.10;62.60;;;;;;4799594;54;21010;-35
2021/06/09 21:39:52;;;;;;;26.15;23.55;;;25.10;62.60;;;;;;4804194;54;21067;-29
2021/06/09 21:44:53;;;;;;;24.37;21.98;;;25.10;62.50;;;;;;4802984;54;21004;-25
2021/06/09 21:49:54;;;;;;;23.92;21.52;;;25.10;62.50;;;;;;4829923;54;21055;-22
2021/06/09 21:54:55;;;;;;;24.08;21.77;;;25.10;62.60;;;;;;4795735;58;21541;-31
2021/06/09 21:59:56;;;;;;;24.15;21.87;;;25.10;62.50;;;;;;4829885;54;21044;-27
2021/06/09 22:04:57;;;;;;;24.25;21.75;;;25.10;62.50;;;;;;4834959;54;21536;-27
2021/06/09 22:09:57;;;;;;;23.80;21.40;;;25.10;62.50;;;;;;4797699;54;21374;-31
2021/06/09 22:14:58;;;;;;;24.27;21.77;;;25.10;62.40;;;;;;4859358;54;21005;-28
2021/06/09 22:19:59;;;;;;;24.83;22.42;;;25.10;62.80;;;;;;4804241;54;21066;-33
2021/06/09 22:25:00;;;;;;;23.92;21.58;;;25.10;62.40;;;;;;4816456;54;21046;-33
2021/06/09 22:30:02;;;;;;;23.83;21.58;;;25.10;62.40;;;;;;4795651;58;21055;-27
2021/06/09 22:35:06;;;;;;;22.92;20.52;;;25.10;62.40;;;;;;4804480;54;21007;-27
2021/06/09 22:40:09;;;;;;;23.62;21.33;;;25.10;62.40;;;;;;4803180;54;21063;-32
2021/06/09 22:45:11;;;;;;;22.42;20.25;;;25.10;62.40;;;;;;4795039;55;21497;-30
2021/06/09 22:50:12;;;;;;;23.42;21.12;;;25.10;62.30;;;;;;4823033;54;21039;-29
2021/06/09 22:55:16;;;;;;;22.42;20.23;;;25.10;62.30;;;;;;4796460;54;21513;-32
2021/06/09 23:00:23;;;;;;;23.95;21.55;;;25.10;62.30;;;;;;4794900;54;21003;-32
2021/06/09 23:05:24;;;;;;;22.73;20.42;;;25.00;62.20;;;;;;4807624;54;21015;-34
2021/06/09 23:10:25;;;;;;;22.30;20.10;;;25.10;62.30;;;;;;4808954;54;21502;-30
2021/06/09 23:15:26;;;;;;;21.25;19.15;;;25.10;62.30;;;;;;4808508;54;20991;-23
2021/06/09 23:20:27;;;;;;;22.98;20.73;;;25.10;62.30;;;;;;4807097;54;21107;-29
2021/06/09 23:25:28;;;;;;;22.25;20.05;;;25.10;62.30;;;;;;4795085;58;21047;-33
2021/06/09 23:30:29;;;;;;;21.83;19.62;;;25.00;62.10;;;;;;4812992;54;20996;-32
2021/06/09 23:35:30;;;;;;;21.80;19.65;;;25.10;62.30;;;;;;4820680;54;21177;-35
2021/06/09 23:40:30;;;;;;;20.58;18.58;;;25.10;62.20;;;;;;4810987;54;20999;-35
2021/06/09 23:45:32;;;;;;;21.42;19.33;;;25.10;62.20;;;;;;4807538;54;21067;-31
2021/06/09 23:57:05;;;;;;;21.02;18.83;;;25.00;62.20;;;;;;4843475;54;21063;-26
